createdAt,value
2018-09-26T00:00:01.968Z,79.5
2018-09-26T00:05:01.295Z,79.51
2018-09-26T00:10:01.580Z,79.93
2018-09-26T00:15:01.860Z,80.06
2018-09-26T00:20:01.224Z,80.27
2018-09-26T00:25:01.550Z,80.73
2018-09-26T00:30:01.901Z,80.89
2018-09-26T00:35:01.259Z,80.98
2018-09-26T00:40:01.616Z,81.38
2018-09-26T00:45:01.969Z,81.67
2018-09-26T00:50:01.406Z,81.96
2018-09-26T00:55:01.868Z,82.18
2018-09-26T01:00:02.163Z,82.21
2018-09-26T01:05:01.765Z,82.51
2018-09-26T01:10:02.111Z,82.92
2018-09-26T01:15:01.365Z,83.14
2018-09-26T01:20:01.804Z,83.24
2018-09-26T01:25:02.181Z,83.12
2018-09-26T01:30:01.488Z,82.63
2018-09-26T01:35:01.934Z,82.46
2018-09-26T01:40:01.272Z,82.62
2018-09-26T01:45:01.609Z,82.18
2018-09-26T01:50:02.056Z,82.04
2018-09-26T01:55:01.392Z,82.18
2018-09-26T02:00:01.742Z,82.16
2018-09-26T02:05:02.198Z,82.2
2018-09-26T02:10:01.548Z,82.28
2018-09-26T02:15:01.904Z,82.16
2018-09-26T02:20:01.276Z,82.53
2018-09-26T02:25:01.692Z,83.69
2018-09-26T02:30:02.145Z,86.2
2018-09-26T02:35:01.570Z,86.99
2018-09-26T02:40:01.342Z,87.07
2018-09-26T02:45:01.756Z,87.94
2018-09-26T02:50:02.085Z,88.6
2018-09-26T02:55:01.343Z,89.91
2018-09-26T03:00:01.840Z,90.23
2018-09-26T03:05:02.319Z,90.97
2018-09-26T03:10:01.659Z,92.45
2018-09-26T03:15:02.101Z,92.8
2018-09-26T03:20:01.440Z,93.04
2018-09-26T03:25:01.824Z,93.16
2018-09-26T03:30:02.125Z,94.12
2018-09-26T03:35:01.446Z,94.38
2018-09-26T03:40:01.762Z,94.91
2018-09-26T03:45:02.081Z,95.13
2018-09-26T03:50:01.392Z,95.46
2018-09-26T03:55:01.777Z,95.68
2018-09-26T04:00:02.147Z,95.96
2018-09-26T04:05:01.867Z,96.08
2018-09-26T04:10:01.351Z,96.25
2018-09-26T04:15:01.636Z,96.18
2018-09-26T04:20:02.046Z,95.92
2018-09-26T04:25:01.379Z,96.05
2018-09-26T04:30:01.822Z,95.73
2018-09-26T04:35:01.352Z,96.17
2018-09-26T04:40:01.720Z,96.3
2018-09-26T04:45:02.031Z,96.54
2018-09-26T04:50:01.342Z,96.42
2018-09-26T04:55:01.657Z,96.59
2018-09-26T05:00:02.058Z,96.88
2018-09-26T05:05:01.389Z,97.31
2018-09-26T05:10:01.780Z,97.33
2018-09-26T05:15:02.164Z,97.5
2018-09-26T05:20:01.510Z,97.34
2018-09-26T05:25:01.857Z,95.73
2018-09-26T05:30:02.146Z,94.19
2018-09-26T05:35:01.517Z,93.44
2018-09-26T05:40:01.923Z,92.92
2018-09-26T05:45:01.216Z,92.5
2018-09-26T05:50:01.561Z,91.93
2018-09-26T05:55:01.912Z,90.76
2018-09-26T06:00:01.160Z,89.23
2018-09-26T06:05:01.587Z,87.35
2018-09-26T06:10:01.870Z,86.28
2018-09-26T06:15:02.222Z,85.05
2018-09-26T06:20:01.656Z,86.08
2018-09-26T06:25:02.088Z,88.14
2018-09-26T06:30:01.420Z,85.14
2018-09-26T06:35:02.167Z,83.27
2018-09-26T06:40:01.663Z,81.94
2018-09-26T06:45:01.944Z,81.26
2018-09-26T06:50:01.236Z,80.8
2018-09-26T06:55:01.561Z,80.91
2018-09-26T07:00:01.889Z,80.72
2018-09-26T07:05:01.210Z,78.93
2018-09-26T07:10:01.495Z,78.46
2018-09-26T07:15:01.841Z,77.12
2018-09-26T07:20:02.154Z,75.93
2018-09-26T07:25:01.433Z,75.16
2018-09-26T07:30:01.921Z,74.17
2018-09-26T07:35:01.254Z,72.85
2018-09-26T07:40:01.561Z,72.66
2018-09-26T07:45:01.878Z,72.85
2018-09-26T07:50:02.315Z,73.11
2018-09-26T07:55:01.664Z,73.47
2018-09-26T08:00:02.306Z,72.87
2018-09-26T08:05:01.864Z,73.59
2018-09-26T08:10:01.211Z,72.12
2018-09-26T08:15:01.521Z,72.11
2018-09-26T08:20:01.970Z,71.38
2018-09-26T08:25:01.256Z,71.05
2018-09-26T08:30:01.745Z,70.5
2018-09-26T08:35:02.203Z,68.21
2018-09-26T08:40:01.643Z,67.54
2018-09-26T08:45:01.973Z,66.44
2018-09-26T08:50:01.271Z,65.6
2018-09-26T08:55:01.624Z,63.21
2018-09-26T09:00:01.967Z,63.67
2018-09-26T09:05:01.275Z,63.13
2018-09-26T09:10:01.556Z,62.36
2018-09-26T09:15:01.875Z,62.92
2018-09-26T09:20:02.316Z,62.79
2018-09-26T09:25:01.801Z,63.61
2018-09-26T09:30:02.151Z,62.77
2018-09-26T09:35:01.507Z,64.07
2018-09-26T09:40:01.924Z,64
2018-09-26T09:45:01.206Z,63.79
2018-09-26T09:50:01.509Z,64.16
2018-09-26T09:55:01.835Z,63.31
2018-09-26T10:00:02.137Z,62.16
2018-09-26T10:05:01.498Z,61.81
2018-09-26T10:10:01.876Z,61.75
2018-09-26T10:15:02.180Z,60.1
2018-09-26T10:20:01.495Z,60.12
2018-09-26T10:25:02.048Z,59.26
2018-09-26T10:30:01.312Z,60.81
2018-09-26T10:35:02.052Z,60.76
2018-09-26T10:40:01.554Z,58.05
2018-09-26T10:45:01.853Z,54.68
2018-09-26T10:50:02.301Z,57.66
2018-09-26T10:55:01.672Z,58.27
2018-09-26T11:00:01.959Z,56.73
2018-09-26T11:05:01.301Z,61.2
2018-09-26T11:10:01.618Z,56.48
2018-09-26T11:15:01.894Z,58.21
2018-09-26T11:20:01.231Z,58.99
2018-09-26T11:25:01.512Z,57.88
2018-09-26T11:30:01.850Z,56.6
2018-09-26T11:35:02.327Z,55.84
2018-09-26T11:40:01.681Z,57.37
2018-09-26T11:45:01.953Z,59.43
2018-09-26T11:50:01.263Z,60.21
2018-09-26T11:55:01.642Z,60.52
2018-09-26T12:00:01.934Z,56.36
2018-09-26T12:05:01.278Z,54.92
2018-09-26T12:10:01.632Z,55.52
2018-09-26T12:15:01.958Z,54.02
2018-09-26T12:20:01.260Z,52.52
2018-09-26T12:25:01.562Z,54.15
2018-09-26T12:30:01.892Z,52.58
2018-09-26T12:35:01.405Z,51
2018-09-26T12:40:02.045Z,51.54
2018-09-26T12:45:01.301Z,51.95
2018-09-26T12:50:01.733Z,55.94
2018-09-26T12:55:02.064Z,53.08
2018-09-26T13:00:01.340Z,51.29
2018-09-26T13:05:01.802Z,50.71
2018-09-26T13:10:02.204Z,50.08
2018-09-26T13:15:01.533Z,49.26
2018-09-26T13:20:02.010Z,48.86
2018-09-26T13:25:01.416Z,49.88
2018-09-26T13:30:01.911Z,51.51
2018-09-26T13:35:01.312Z,49.55
2018-09-26T13:40:01.622Z,47.36
2018-09-26T13:45:02.256Z,46.87
2018-09-26T13:50:02.054Z,47.38
2018-09-26T13:55:01.383Z,46.78
2018-09-26T14:00:01.706Z,45.65
2018-09-26T14:05:02.195Z,46.07
2018-09-26T14:10:01.567Z,43.87
2018-09-26T14:15:01.826Z,46.49
2018-09-26T14:20:02.207Z,47.73
2018-09-26T14:25:01.606Z,45.91
2018-09-26T14:30:01.982Z,46.16
2018-09-26T14:35:01.466Z,46.19
2018-09-26T14:40:01.816Z,45.7
2018-09-26T14:45:02.170Z,45.87
2018-09-26T14:50:01.495Z,46.86
2018-09-26T14:55:01.831Z,48.64
2018-09-26T15:00:02.176Z,44.63
2018-09-26T15:05:01.504Z,44.66
2018-09-26T15:10:01.850Z,44.98
2018-09-26T15:15:02.142Z,45.9
2018-09-26T15:20:01.563Z,45.27
2018-09-26T15:25:02.103Z,45.51
2018-09-26T15:30:01.411Z,44.72
2018-09-26T15:35:01.866Z,49.9
2018-09-26T15:40:02.311Z,45.65
2018-09-26T15:45:01.647Z,50.86
2018-09-26T15:50:02.076Z,52.38
2018-09-26T15:55:01.380Z,46.87
2018-09-26T16:00:01.774Z,50.71
2018-09-26T16:05:02.200Z,54.55
2018-09-26T16:10:01.520Z,56.46
2018-09-26T16:15:01.781Z,53.44
2018-09-26T16:20:02.270Z,51.91
2018-09-26T16:25:01.697Z,49.13
2018-09-26T16:30:02.052Z,46.46
2018-09-26T16:35:01.374Z,49.23
2018-09-26T16:40:01.801Z,51.37
2018-09-26T16:45:02.090Z,48.39
2018-09-26T16:50:01.496Z,53.25
2018-09-26T16:55:01.882Z,56.94
2018-09-26T17:00:01.216Z,59.23
2018-09-26T17:05:01.611Z,59.74
2018-09-26T17:10:01.946Z,56.51
2018-09-26T17:15:01.210Z,57.42
2018-09-26T17:20:01.726Z,58.32
2018-09-26T17:25:02.171Z,61.94
2018-09-26T17:30:01.451Z,60.97
2018-09-26T17:35:01.942Z,62.56
2018-09-26T17:40:01.319Z,64.44
2018-09-26T17:45:01.673Z,64.86
2018-09-26T17:50:02.127Z,66.16
2018-09-26T17:55:01.543Z,66.44
2018-09-26T18:00:01.860Z,67.58
2018-09-26T18:05:01.218Z,67.9
2018-09-26T18:10:01.550Z,68.44
2018-09-26T18:15:01.915Z,67.25
2018-09-26T18:20:01.184Z,66.99
2018-09-26T18:25:01.494Z,66.63
2018-09-26T18:30:01.816Z,66.28
2018-09-26T18:35:02.280Z,66.5
2018-09-26T18:40:01.632Z,66.35
2018-09-26T18:45:02.074Z,66.45
2018-09-26T18:50:01.726Z,68.24
2018-09-26T18:55:02.096Z,67.64
2018-09-26T19:00:01.349Z,67.45
2018-09-26T19:05:02.308Z,67.87
2018-09-26T19:10:02.071Z,69.7
2018-09-26T19:15:01.623Z,69.19
2018-09-26T19:20:02.217Z,69.44
2018-09-26T19:25:01.649Z,69.14
2018-09-26T19:30:02.035Z,70.4
2018-09-26T19:35:01.399Z,70.77
2018-09-26T19:40:01.780Z,71.79
2018-09-26T19:45:02.323Z,71.46
2018-09-26T19:50:01.945Z,72.4
2018-09-26T19:55:01.316Z,73.61
2018-09-26T20:00:01.748Z,73.51
2018-09-26T20:05:02.252Z,74.04
2018-09-26T20:10:01.636Z,74.01
2018-09-26T20:15:01.463Z,73.92
2018-09-26T20:20:01.924Z,74.11
2018-09-26T20:25:01.454Z,73.96
2018-09-26T20:30:02.030Z,74.41
2018-09-26T20:35:01.622Z,74.69
2018-09-26T20:40:02.281Z,76.3
2018-09-26T20:45:01.647Z,77.1
2018-09-26T20:50:01.948Z,77.04
2018-09-26T20:55:01.232Z,78.37
2018-09-26T21:00:01.558Z,78.1
2018-09-26T21:05:01.858Z,78.9
2018-09-26T21:10:02.125Z,78.48
2018-09-26T21:15:01.477Z,77.38
2018-09-26T21:20:01.897Z,76.76
2018-09-26T21:25:01.267Z,76.43
2018-09-26T21:30:01.643Z,76.16
2018-09-26T21:35:02.046Z,77.85
2018-09-26T21:40:01.391Z,79.42
2018-09-26T21:45:01.823Z,80.45
2018-09-26T21:50:02.217Z,82.08
2018-09-26T21:55:01.720Z,82.5
2018-09-26T22:00:02.124Z,83.95
2018-09-26T22:05:01.523Z,85.7
2018-09-26T22:10:01.946Z,86.55
2018-09-26T22:15:01.313Z,85.91
2018-09-26T22:20:01.659Z,84.64
2018-09-26T22:25:02.101Z,84.31
2018-09-26T22:30:01.477Z,84.4
2018-09-26T22:35:01.823Z,85.11
2018-09-26T22:40:02.220Z,86.01
2018-09-26T22:45:01.587Z,86.81
2018-09-26T22:50:01.975Z,87.75
2018-09-26T22:55:01.340Z,89.07
2018-09-26T23:00:01.754Z,89.82
2018-09-26T23:05:02.176Z,90.36
2018-09-26T23:10:01.463Z,90.36
2018-09-26T23:15:01.608Z,91.87
2018-09-26T23:20:02.099Z,91.87
2018-09-26T23:25:01.518Z,92.54
2018-09-26T23:30:02.029Z,92.68
2018-09-26T23:35:01.375Z,92.51
2018-09-26T23:40:01.776Z,92.96
2018-09-26T23:45:02.178Z,92.94
2018-09-26T23:50:01.537Z,93.22
2018-09-26T23:55:01.962Z,92.77
